PWSweather.com
Personal Weather Stations
Station Observations
KTXPLANO60
Highlands Of Russell Park, Plano, TX 75025

Highlands Of Russell ParkPlano, TX 75025

Lat: 33.10431671, Lon: -96.75176239

Elevation: 761

Station Type: Davis Wireless VP2 Plus

http://www.planoweather.com

Latest ConditionsUpdated 5:10:02 PM CST Sunday, Dec 16, 2018
Currently Today's Max Today's Min Today's Average
Temperature 60.0°F15.6°C 65.9°F18.8°C 38.7°F3.7°C 51.2°F10.7°C
Dew Point 38.6°F3.7°C 38.6°F3.7°C 28.0°F-2.2°C 32.5°F0.3°C
Winds 3.5 mph S5.6 kmh S 12.7 mph -20.4 kmh - - 5.1 mph 8.2 kmh
Wind Gusts 3.5 mph5.6 kmh 20.7 mph33.3 kmh - -
Humidity 45% 74% 24% 51%
Pressure 30.16 in1021.3 mb 30.26 in1024.7 mb 30.15 in1021.0 mb -
Hour Temp Dew Point Humidity Winds Wind Gusts Pressure Precip Precip Rate Daily Precip Total
05:10 PM 60.0°F15.6°C 38.6°F3.7°C 45% 3.5 mph S5.6 kmh S 3.5 mph5.6 kmh 30.16 in1021.3 mb - 0.00 in0.0 mm 0.00 in0.0 mm
05:00 PM 60.5°F15.8°C 38.5°F3.6°C 44% 2.3 mph S3.7 kmh S 3.5 mph5.6 kmh 30.17 in1021.7 mb - 0.00 in0.0 mm 0.00 in0.0 mm
04:50 PM 60.9°F16.1°C 37.7°F3.2°C 42% 4.6 mph S7.4 kmh S 6.9 mph11.1 kmh 30.16 in1021.3 mb - 0.00 in0.0 mm 0.00 in0.0 mm
04:40 PM 61.4°F16.3°C 38.1°F3.4°C 42% 4.6 mph S7.4 kmh S 6.9 mph11.1 kmh 30.17 in1021.7 mb - 0.00 in0.0 mm 0.00 in0.0 mm
04:30 PM 62.0°F16.7°C 37.4°F3.0°C 40% 4.6 mph S7.4 kmh S 4.6 mph7.4 kmh 30.17 in1021.7 mb - 0.00 in0.0 mm 0.00 in0.0 mm
04:20 PM 62.6°F17.0°C 36.6°F2.6°C 38% 4.6 mph S7.4 kmh S 6.9 mph11.1 kmh 30.17 in1021.7 mb - 0.00 in0.0 mm 0.00 in0.0 mm
04:10 PM 63.1°F17.3°C 35.7°F2.1°C 36% 4.6 mph S7.4 kmh S 5.8 mph9.3 kmh 30.17 in1021.7 mb - 0.00 in0.0 mm 0.00 in0.0 mm
04:00 PM 63.6°F17.6°C 33.9°F1.1°C 33% 4.6 mph S7.4 kmh S 8.1 mph13.0 kmh 30.17 in1021.7 mb - 0.00 in0.0 mm 0.00 in0.0 mm
03:50 PM 63.9°F17.7°C 33.4°F0.8°C 32% 3.5 mph S5.6 kmh S 4.6 mph7.4 kmh 30.17 in1021.7 mb - 0.00 in0.0 mm 0.00 in0.0 mm
03:40 PM 64.2°F17.9°C 32.9°F0.5°C 31% 5.8 mph S9.3 kmh S 9.2 mph14.8 kmh 30.17 in1021.7 mb - 0.00 in0.0 mm 0.00 in0.0 mm
03:30 PM 64.5°F18.1°C 33.2°F0.7°C 31% 6.9 mph S11.1 kmh S 9.2 mph14.8 kmh 30.16 in1021.3 mb - 0.00 in0.0 mm 0.00 in0.0 mm
03:20 PM 64.7°F18.2°C 31.7°F-0.2°C 29% 10.4 mph S16.7 kmh S 13.8 mph22.2 kmh 30.16 in1021.3 mb - 0.00 in0.0 mm 0.00 in0.0 mm
03:10 PM 64.9°F18.3°C 31.0°F-0.6°C 28% 9.2 mph S14.8 kmh S 11.5 mph18.5 kmh 30.15 in1021.0 mb - 0.00 in0.0 mm 0.00 in0.0 mm
03:00 PM 65.2°F18.4°C 31.2°F-0.4°C 28% 10.4 mph S16.7 kmh S 12.7 mph20.4 kmh 30.15 in1021.0 mb - 0.00 in0.0 mm 0.00 in0.0 mm
02:50 PM 65.5°F18.6°C 30.6°F-0.8°C 27% 6.9 mph S11.1 kmh S 12.7 mph20.4 kmh 30.15 in1021.0 mb - 0.00 in0.0 mm 0.00 in0.0 mm
02:40 PM 65.6°F18.7°C 28.8°F-1.8°C 25% 12.7 mph S20.4 kmh S 20.7 mph33.3 kmh 30.15 in1021.0 mb - 0.00 in0.0 mm 0.00 in0.0 mm
02:30 PM 65.8°F18.8°C 28.0°F-2.2°C 24% 10.4 mph S16.7 kmh S 16.1 mph25.9 kmh 30.15 in1021.0 mb - 0.00 in0.0 mm 0.00 in0.0 mm
02:20 PM 65.9°F18.8°C 29.1°F-1.6°C 25% 6.9 mph SSE11.1 kmh SSE 11.5 mph18.5 kmh 30.15 in1021.0 mb - 0.00 in0.0 mm 0.00 in0.0 mm
02:10 PM 65.9°F18.8°C 31.8°F-0.1°C 28% 10.4 mph SE16.7 kmh SE 15.0 mph24.1 kmh 30.15 in1021.0 mb - 0.00 in0.0 mm 0.00 in0.0 mm
02:00 PM 65.7°F18.7°C 34.2°F1.2°C 31% 12.7 mph S20.4 kmh S 17.3 mph27.8 kmh 30.16 in1021.3 mb - 0.00 in0.0 mm 0.00 in0.0 mm
01:50 PM 65.0°F18.3°C 37.4°F3.0°C 36% 8.1 mph S13.0 kmh S 12.7 mph20.4 kmh 30.16 in1021.3 mb - 0.00 in0.0 mm 0.00 in0.0 mm
01:40 PM 64.3°F17.9°C 36.8°F2.7°C 36% 8.1 mph S13.0 kmh S 11.5 mph18.5 kmh 30.16 in1021.3 mb - 0.00 in0.0 mm 0.00 in0.0 mm
01:30 PM 63.3°F17.4°C 35.9°F2.2°C 36% 8.1 mph S13.0 kmh S 11.5 mph18.5 kmh 30.16 in1021.3 mb - 0.00 in0.0 mm 0.00 in0.0 mm
01:20 PM 63.5°F17.5°C 35.3°F1.8°C 35% 6.9 mph SSE11.1 kmh SSE 9.2 mph14.8 kmh 30.16 in1021.3 mb - 0.00 in0.0 mm 0.00 in0.0 mm
01:10 PM 63.6°F17.6°C 34.7°F1.5°C 34% 6.9 mph S11.1 kmh S 9.2 mph14.8 kmh 30.16 in1021.3 mb - 0.00 in0.0 mm 0.00 in0.0 mm
01:00 PM 63.6°F17.6°C 34.7°F1.5°C 34% 8.1 mph SSE13.0 kmh SSE 13.8 mph22.2 kmh 30.17 in1021.7 mb - 0.00 in0.0 mm 0.00 in0.0 mm
12:50 PM 63.0°F17.2°C 34.2°F1.2°C 34% 9.2 mph S14.8 kmh S 11.5 mph18.5 kmh 30.17 in1021.7 mb - 0.00 in0.0 mm 0.00 in0.0 mm
12:40 PM 62.8°F17.1°C 34.7°F1.5°C 35% 8.1 mph S13.0 kmh S 11.5 mph18.5 kmh 30.18 in1022.0 mb - 0.00 in0.0 mm 0.00 in0.0 mm
12:30 PM 62.3°F16.8°C 35.0°F1.7°C 36% 5.8 mph S9.3 kmh S 9.2 mph14.8 kmh 30.19 in1022.4 mb - 0.00 in0.0 mm 0.00 in0.0 mm
12:20 PM 62.1°F16.7°C 34.1°F1.2°C 35% 6.9 mph SE11.1 kmh SE 9.2 mph14.8 kmh 30.20 in1022.7 mb - 0.00 in0.0 mm 0.00 in0.0 mm
12:10 PM 61.3°F16.3°C 34.1°F1.2°C 36% 6.9 mph S11.1 kmh S 8.1 mph13.0 kmh 30.20 in1022.7 mb - 0.00 in0.0 mm 0.00 in0.0 mm
12:00 PM 60.0°F15.6°C 33.0°F0.6°C 36% 8.1 mph S13.0 kmh S 11.5 mph18.5 kmh 30.21 in1023.0 mb - 0.00 in0.0 mm 0.00 in0.0 mm
11:50 AM 59.2°F15.1°C 33.0°F0.6°C 37% 4.6 mph S7.4 kmh S 5.8 mph9.3 kmh 30.22 in1023.4 mb - 0.00 in0.0 mm 0.00 in0.0 mm
11:40 AM 58.2°F14.6°C 33.3°F0.7°C 39% 5.8 mph S9.3 kmh S 9.2 mph14.8 kmh 30.22 in1023.4 mb - 0.00 in0.0 mm 0.00 in0.0 mm
11:30 AM 57.5°F14.2°C 32.1°F0.1°C 38% 4.6 mph SSE7.4 kmh SSE 8.1 mph13.0 kmh 30.23 in1023.7 mb - 0.00 in0.0 mm 0.00 in0.0 mm
11:20 AM 57.4°F14.1°C 32.0°F0.0°C 38% 4.6 mph SE7.4 kmh SE 6.9 mph11.1 kmh 30.23 in1023.7 mb - 0.00 in0.0 mm 0.00 in0.0 mm
11:10 AM 57.5°F14.2°C 32.0°F0.0°C 38% 4.6 mph SSE7.4 kmh SSE 6.9 mph11.1 kmh 30.23 in1023.7 mb - 0.00 in0.0 mm 0.00 in0.0 mm
11:00 AM 57.3°F14.1°C 32.5°F0.3°C 39% 6.9 mph S11.1 kmh S 11.5 mph18.5 kmh 30.24 in1024.0 mb - 0.00 in0.0 mm 0.00 in0.0 mm
10:50 AM 57.2°F14.0°C 32.4°F0.2°C 39% 6.9 mph S11.1 kmh S 13.8 mph22.2 kmh 30.25 in1024.4 mb - 0.00 in0.0 mm 0.00 in0.0 mm
10:40 AM 56.7°F13.7°C 32.6°F0.3°C 40% 5.8 mph S9.3 kmh S 9.2 mph14.8 kmh 30.25 in1024.4 mb - 0.00 in0.0 mm 0.00 in0.0 mm
10:30 AM 56.4°F13.6°C 32.4°F0.2°C 40% 8.1 mph S13.0 kmh S 11.5 mph18.5 kmh 30.25 in1024.4 mb - 0.00 in0.0 mm 0.00 in0.0 mm
10:20 AM 55.3°F12.9°C 32.0°F0.0°C 41% 8.1 mph S13.0 kmh S 11.5 mph18.5 kmh 30.26 in1024.7 mb - 0.00 in0.0 mm 0.00 in0.0 mm
10:10 AM 54.5°F12.5°C 31.9°F-0.1°C 42% 4.6 mph S7.4 kmh S 8.1 mph13.0 kmh 30.25 in1024.4 mb - 0.00 in0.0 mm 0.00 in0.0 mm
10:00 AM 54.1°F12.3°C 32.1°F0.1°C 43% 5.8 mph SE9.3 kmh SE 6.9 mph11.1 kmh 30.25 in1024.4 mb - 0.00 in0.0 mm 0.00 in0.0 mm
09:50 AM 53.9°F12.2°C 31.9°F-0.1°C 43% 5.8 mph SSE9.3 kmh SSE 8.1 mph13.0 kmh 30.25 in1024.4 mb - 0.00 in0.0 mm 0.00 in0.0 mm
09:40 AM 53.6°F12.0°C 31.6°F-0.2°C 43% 5.8 mph SSE9.3 kmh SSE 8.1 mph13.0 kmh 30.24 in1024.0 mb - 0.00 in0.0 mm 0.00 in0.0 mm
09:30 AM 52.9°F11.6°C 32.1°F0.1°C 45% 5.8 mph SSE9.3 kmh SSE 11.5 mph18.5 kmh 30.23 in1023.7 mb - 0.00 in0.0 mm 0.00 in0.0 mm
09:20 AM 51.9°F11.1°C 31.7°F-0.2°C 46% 6.9 mph SSE11.1 kmh SSE 11.5 mph18.5 kmh 30.23 in1023.7 mb - 0.00 in0.0 mm 0.00 in0.0 mm
09:10 AM 50.9°F10.5°C 32.4°F0.2°C 49% 8.1 mph SE13.0 kmh SE 11.5 mph18.5 kmh 30.22 in1023.4 mb - 0.00 in0.0 mm 0.00 in0.0 mm
09:00 AM 48.3°F9.1°C 32.0°F0.0°C 53% 5.8 mph S9.3 kmh S 6.9 mph11.1 kmh 30.22 in1023.4 mb - 0.00 in0.0 mm 0.00 in0.0 mm
08:50 AM 47.0°F8.3°C 31.7°F-0.2°C 55% 4.6 mph SE7.4 kmh SE 6.9 mph11.1 kmh 30.21 in1023.0 mb - 0.00 in0.0 mm 0.00 in0.0 mm
08:40 AM 46.4°F8.0°C 32.0°F0.0°C 57% 5.8 mph SE9.3 kmh SE 8.1 mph13.0 kmh 30.22 in1023.4 mb - 0.00 in0.0 mm 0.00 in0.0 mm
08:30 AM 45.6°F7.6°C 32.1°F0.1°C 59% 5.8 mph SE9.3 kmh SE 5.8 mph9.3 kmh 30.22 in1023.4 mb - 0.00 in0.0 mm 0.00 in0.0 mm
08:20 AM 44.8°F7.1°C 32.2°F0.1°C 61% 3.5 mph SSE5.6 kmh SSE 4.6 mph7.4 kmh 30.22 in1023.4 mb - 0.00 in0.0 mm 0.00 in0.0 mm
08:10 AM 44.1°F6.7°C 31.9°F-0.1°C 62% 4.6 mph SSE7.4 kmh SSE 5.8 mph9.3 kmh 30.22 in1023.4 mb - 0.00 in0.0 mm 0.00 in0.0 mm
08:00 AM 43.6°F6.4°C 32.6°F0.3°C 65% 4.6 mph SSE7.4 kmh SSE 6.9 mph11.1 kmh 30.22 in1023.4 mb - 0.00 in0.0 mm 0.00 in0.0 mm
07:50 AM 43.5°F6.4°C 32.5°F0.3°C 65% 4.6 mph SSE7.4 kmh SSE 5.8 mph9.3 kmh 30.22 in1023.4 mb - 0.00 in0.0 mm 0.00 in0.0 mm
07:40 AM 43.4°F6.3°C 32.0°F0.0°C 64% 5.8 mph SSE9.3 kmh SSE 6.9 mph11.1 kmh 30.21 in1023.0 mb - 0.00 in0.0 mm 0.00 in0.0 mm
07:30 AM 43.3°F6.3°C 32.3°F0.2°C 65% 4.6 mph SE7.4 kmh SE 6.9 mph11.1 kmh 30.21 in1023.0 mb - 0.00 in0.0 mm 0.00 in0.0 mm
07:20 AM 43.1°F6.2°C 32.5°F0.3°C 66% 4.6 mph SSE7.4 kmh SSE 5.8 mph9.3 kmh 30.21 in1023.0 mb - 0.00 in0.0 mm 0.00 in0.0 mm
07:10 AM 43.1°F6.2°C 32.1°F0.1°C 65% 4.6 mph SSE7.4 kmh SSE 4.6 mph7.4 kmh 30.22 in1023.4 mb - 0.00 in0.0 mm 0.00 in0.0 mm
07:00 AM 43.3°F6.3°C 31.9°F-0.1°C 64% 3.5 mph SSE5.6 kmh SSE 3.5 mph5.6 kmh 30.21 in1023.0 mb - 0.00 in0.0 mm 0.00 in0.0 mm
06:50 AM 43.5°F6.4°C 31.7°F-0.2°C 63% 2.3 mph SSE3.7 kmh SSE 3.5 mph5.6 kmh 30.21 in1023.0 mb - 0.00 in0.0 mm 0.00 in0.0 mm
06:40 AM 43.5°F6.4°C 31.7°F-0.2°C 63% 2.3 mph SSE3.7 kmh SSE 2.3 mph3.7 kmh 30.20 in1022.7 mb - 0.00 in0.0 mm 0.00 in0.0 mm
06:30 AM 43.4°F6.3°C 31.6°F-0.2°C 63% 2.3 mph SSE3.7 kmh SSE 3.5 mph5.6 kmh 30.20 in1022.7 mb - 0.00 in0.0 mm 0.00 in0.0 mm
06:20 AM 43.1°F6.2°C 32.1°F0.1°C 65% 3.5 mph SSE5.6 kmh SSE 4.6 mph7.4 kmh 30.20 in1022.7 mb - 0.00 in0.0 mm 0.00 in0.0 mm
06:10 AM 42.9°F6.1°C 32.3°F0.2°C 66% 4.6 mph SSE7.4 kmh SSE 6.9 mph11.1 kmh 30.20 in1022.7 mb - 0.00 in0.0 mm 0.00 in0.0 mm
06:00 AM 42.7°F5.9°C 32.5°F0.3°C 67% 3.5 mph SSE5.6 kmh SSE 3.5 mph5.6 kmh 30.20 in1022.7 mb - 0.00 in0.0 mm 0.00 in0.0 mm
05:50 AM 42.8°F6.0°C 32.2°F0.1°C 66% 4.6 mph SE7.4 kmh SE 4.6 mph7.4 kmh 30.20 in1022.7 mb - 0.00 in0.0 mm 0.00 in0.0 mm
05:40 AM 43.2°F6.2°C 32.2°F0.1°C 65% 3.5 mph SE5.6 kmh SE 4.6 mph7.4 kmh 30.20 in1022.7 mb - 0.00 in0.0 mm 0.00 in0.0 mm
05:30 AM 43.4°F6.3°C 32.0°F0.0°C 64% 2.3 mph SE3.7 kmh SE 3.5 mph5.6 kmh 30.19 in1022.4 mb - 0.00 in0.0 mm 0.00 in0.0 mm
05:20 AM 43.3°F6.3°C 31.9°F-0.1°C 64% 3.5 mph SE5.6 kmh SE 4.6 mph7.4 kmh 30.18 in1022.0 mb - 0.00 in0.0 mm 0.00 in0.0 mm
05:10 AM 42.9°F6.1°C 31.9°F-0.1°C 65% 4.6 mph SE7.4 kmh SE 5.8 mph9.3 kmh 30.18 in1022.0 mb - 0.00 in0.0 mm 0.00 in0.0 mm
05:00 AM 42.7°F5.9°C 32.1°F0.1°C 66% 4.6 mph SE7.4 kmh SE 4.6 mph7.4 kmh 30.18 in1022.0 mb - 0.00 in0.0 mm 0.00 in0.0 mm
04:50 AM 42.8°F6.0°C 32.2°F0.1°C 66% 2.3 mph SE3.7 kmh SE 3.5 mph5.6 kmh 30.18 in1022.0 mb - 0.00 in0.0 mm 0.00 in0.0 mm
04:40 AM 42.9°F6.1°C 32.3°F0.2°C 66% 3.5 mph SE5.6 kmh SE 3.5 mph5.6 kmh 30.18 in1022.0 mb - 0.00 in0.0 mm 0.00 in0.0 mm
04:30 AM 43.0°F6.1°C 32.4°F0.2°C 66% 3.5 mph SE5.6 kmh SE 3.5 mph5.6 kmh 30.18 in1022.0 mb - 0.00 in0.0 mm 0.00 in0.0 mm
04:20 AM 42.7°F5.9°C 32.1°F0.1°C 66% 4.6 mph ESE7.4 kmh ESE 5.8 mph9.3 kmh 30.18 in1022.0 mb - 0.00 in0.0 mm 0.00 in0.0 mm
04:10 AM 42.3°F5.7°C 32.1°F0.1°C 67% 3.5 mph ESE5.6 kmh ESE 4.6 mph7.4 kmh 30.19 in1022.4 mb - 0.00 in0.0 mm 0.00 in0.0 mm
04:00 AM 42.0°F5.6°C 32.2°F0.1°C 68% 3.5 mph ESE5.6 kmh ESE 4.6 mph7.4 kmh 30.19 in1022.4 mb - 0.00 in0.0 mm 0.00 in0.0 mm
03:50 AM 41.6°F5.3°C 32.2°F0.1°C 69% 2.3 mph ESE3.7 kmh ESE 4.6 mph7.4 kmh 30.19 in1022.4 mb - 0.00 in0.0 mm 0.00 in0.0 mm
03:40 AM 41.0°F5.0°C 32.0°F0.0°C 70% 3.5 mph ESE5.6 kmh ESE 4.6 mph7.4 kmh 30.19 in1022.4 mb - 0.00 in0.0 mm 0.00 in0.0 mm
03:30 AM 40.4°F4.7°C 31.4°F-0.3°C 70% 3.5 mph ESE5.6 kmh ESE 4.6 mph7.4 kmh 30.19 in1022.4 mb - 0.00 in0.0 mm 0.00 in0.0 mm
03:20 AM 39.7°F4.3°C 31.4°F-0.3°C 72% 3.5 mph ESE5.6 kmh ESE 3.5 mph5.6 kmh 30.19 in1022.4 mb - 0.00 in0.0 mm 0.00 in0.0 mm
03:10 AM 38.7°F3.7°C 31.1°F-0.5°C 74% 3.5 mph SE5.6 kmh SE 5.8 mph9.3 kmh 30.19 in1022.4 mb - 0.00 in0.0 mm 0.00 in0.0 mm
03:00 AM 38.8°F3.8°C 30.9°F-0.6°C 73% 2.3 mph SSW3.7 kmh SSW 3.5 mph5.6 kmh 30.19 in1022.4 mb - 0.00 in0.0 mm 0.00 in0.0 mm
02:50 AM 38.9°F3.8°C 30.6°F-0.8°C 72% 2.3 mph SW3.7 kmh SW 3.5 mph5.6 kmh 30.19 in1022.4 mb - 0.00 in0.0 mm 0.00 in0.0 mm
02:40 AM 39.3°F4.1°C 30.7°F-0.7°C 71% 2.3 mph SW3.7 kmh SW 3.5 mph5.6 kmh 30.19 in1022.4 mb - 0.00 in0.0 mm 0.00 in0.0 mm
02:30 AM 39.7°F4.3°C 31.1°F-0.5°C 71% 1.2 mph WSW1.9 kmh WSW 2.3 mph3.7 kmh 30.19 in1022.4 mb - 0.00 in0.0 mm 0.00 in0.0 mm
02:20 AM 39.9°F4.4°C 30.5°F-0.8°C 69% 2.3 mph WSW3.7 kmh WSW 2.3 mph3.7 kmh 30.19 in1022.4 mb - 0.00 in0.0 mm 0.00 in0.0 mm
02:10 AM 40.0°F4.4°C 30.3°F-0.9°C 68% 2.3 mph WSW3.7 kmh WSW 2.3 mph3.7 kmh 30.19 in1022.4 mb - 0.00 in0.0 mm 0.00 in0.0 mm
02:00 AM 40.4°F4.7°C 29.9°F-1.2°C 66% 2.3 mph WSW3.7 kmh WSW 2.3 mph3.7 kmh 30.19 in1022.4 mb - 0.00 in0.0 mm 0.00 in0.0 mm
01:50 AM 41.0°F5.0°C 29.7°F-1.3°C 64% 1.2 mph WSW1.9 kmh WSW 3.5 mph5.6 kmh 30.19 in1022.4 mb - 0.00 in0.0 mm 0.00 in0.0 mm
01:40 AM 41.5°F5.3°C 30.2°F-1.0°C 64% 1.2 mph WSW1.9 kmh WSW 2.3 mph3.7 kmh 30.19 in1022.4 mb - 0.00 in0.0 mm 0.00 in0.0 mm
01:30 AM 42.2°F5.7°C 30.5°F-0.8°C 63% 2.3 mph WSW3.7 kmh WSW 3.5 mph5.6 kmh 30.18 in1022.0 mb - 0.00 in0.0 mm 0.00 in0.0 mm
01:20 AM 42.8°F6.0°C 30.6°F-0.8°C 62% 3.5 mph WSW5.6 kmh WSW 3.5 mph5.6 kmh 30.19 in1022.4 mb - 0.00 in0.0 mm 0.00 in0.0 mm
01:10 AM 43.4°F6.3°C 30.8°F-0.7°C 61% 3.5 mph WSW5.6 kmh WSW 3.5 mph5.6 kmh 30.19 in1022.4 mb - 0.00 in0.0 mm 0.00 in0.0 mm
01:00 AM 43.9°F6.6°C 30.9°F-0.6°C 60% 3.5 mph WSW5.6 kmh WSW 3.5 mph5.6 kmh 30.19 in1022.4 mb - 0.00 in0.0 mm 0.00 in0.0 mm
12:50 AM 44.0°F6.7°C 31.0°F-0.6°C 60% 3.5 mph SW5.6 kmh SW 3.5 mph5.6 kmh 30.19 in1022.4 mb - 0.00 in0.0 mm 0.00 in0.0 mm
12:40 AM 43.8°F6.6°C 30.8°F-0.7°C 60% 3.5 mph SW5.6 kmh SW 3.5 mph5.6 kmh 30.20 in1022.7 mb - 0.00 in0.0 mm 0.00 in0.0 mm
12:30 AM 43.3°F6.3°C 30.7°F-0.7°C 61% 3.5 mph SW5.6 kmh SW 4.6 mph7.4 kmh 30.20 in1022.7 mb - 0.00 in0.0 mm 0.00 in0.0 mm
12:20 AM 42.8°F6.0°C 30.7°F-0.7°C 62% 3.5 mph SW5.6 kmh SW 4.6 mph7.4 kmh 30.20 in1022.7 mb - 0.00 in0.0 mm 0.00 in0.0 mm
12:10 AM 42.7°F5.9°C 30.6°F-0.8°C 62% 3.5 mph SW5.6 kmh SW 4.6 mph7.4 kmh 30.20 in1022.7 mb - 0.00 in0.0 mm 0.00 in0.0 mm
12:00 AM 42.7°F5.9°C 31.0°F-0.6°C 63% 3.5 mph WSW5.6 kmh WSW 4.6 mph7.4 kmh 30.20 in1022.7 mb - 0.00 in0.0 mm 0.00 in0.0 mm